sensor_id;sensor_type;location;lat;lon;timestamp;pressure;altitude;pressure_sealevel;temperature;humidity
37972;BME280;23794;48.234;8.344;2023-04-21T00:01:13;93830.41;;;0.71;80.86
37972;BME280;23794;48.234;8.344;2023-04-21T00:03:40;93833.53;;;1.05;84.37
37972;BME280;23794;48.234;8.344;2023-04-21T00:06:07;93829.44;;;1.28;84.67
37972;BME280;23794;48.234;8.344;2023-04-21T00:08:35;93817.81;;;1.43;84.30
37972;BME280;23794;48.234;8.344;2023-04-21T00:11:06;93815.16;;;1.63;83.53
37972;BME280;23794;48.234;8.344;2023-04-21T00:13:34;93807.78;;;1.79;83.18
37972;BME280;23794;48.234;8.344;2023-04-21T00:16:02;93806.28;;;1.62;79.53
37972;BME280;23794;48.234;8.344;2023-04-21T00:18:29;93799.91;;;1.35;79.55
37972;BME280;23794;48.234;8.344;2023-04-21T00:20:55;93801.41;;;1.32;81.84
37972;BME280;23794;48.234;8.344;2023-04-21T00:23:22;93797.91;;;1.32;81.71
37972;BME280;23794;48.234;8.344;2023-04-21T00:25:49;93792.78;;;1.27;80.18
37972;BME280;23794;48.234;8.344;2023-04-21T00:28:16;93784.25;;;1.25;81.42
37972;BME280;23794;48.234;8.344;2023-04-21T00:30:43;93786.69;;;1.30;80.66
37972;BME280;23794;48.234;8.344;2023-04-21T00:33:09;93783.50;;;1.44;81.64
37972;BME280;23794;48.234;8.344;2023-04-21T00:35:36;93782.88;;;1.50;81.35
37972;BME280;23794;48.234;8.344;2023-04-21T00:38:03;93781.47;;;1.57;81.51
37972;BME280;23794;48.234;8.344;2023-04-21T00:40:29;93788.88;;;1.60;81.15
37972;BME280;23794;48.234;8.344;2023-04-21T00:42:56;93794.19;;;1.56;81.64
37972;BME280;23794;48.234;8.344;2023-04-21T00:45:23;93791.41;;;1.52;80.73
37972;BME280;23794;48.234;8.344;2023-04-21T00:47:50;93787.34;;;1.43;79.86
37972;BME280;23794;48.234;8.344;2023-04-21T00:50:17;93780.41;;;1.26;79.26
37972;BME280;23794;48.234;8.344;2023-04-21T00:52:44;93782.84;;;1.31;81.48
37972;BME280;23794;48.234;8.344;2023-04-21T00:55:13;93778.09;;;1.44;81.64
37972;BME280;23794;48.234;8.344;2023-04-21T00:57:41;93788.97;;;1.47;82.16
37972;BME280;23794;48.234;8.344;2023-04-21T01:00:09;93783.50;;;1.44;82.44
37972;BME280;23794;48.234;8.344;2023-04-21T01:02:37;93780.53;;;1.49;81.85
37972;BME280;23794;48.234;8.344;2023-04-21T01:05:05;93790.63;;;1.52;81.97
37972;BME280;23794;48.234;8.344;2023-04-21T01:07:36;93790.00;;;1.59;81.79
37972;BME280;23794;48.234;8.344;2023-04-21T01:10:04;93775.78;;;1.62;81.78
37972;BME280;23794;48.234;8.344;2023-04-21T01:12:31;93779.28;;;1.62;81.11
37972;BME280;23794;48.234;8.344;2023-04-21T01:14:57;93782.25;;;1.57;81.87
37972;BME280;23794;48.234;8.344;2023-04-21T01:17:24;93779.47;;;1.53;81.72
37972;BME280;23794;48.234;8.344;2023-04-21T01:19:55;93782.97;;;1.54;81.57
37972;BME280;23794;48.234;8.344;2023-04-21T01:22:22;93776.34;;;1.51;81.80
37972;BME280;23794;48.234;8.344;2023-04-21T01:24:49;93781.47;;;1.57;81.44
37972;BME280;23794;48.234;8.344;2023-04-21T01:27:18;93783.81;;;1.58;80.86
37972;BME280;23794;48.234;8.344;2023-04-21T01:29:50;93789.84;;;1.51;81.25
37972;BME280;23794;48.234;8.344;2023-04-21T01:32:20;93786.63;;;1.46;81.61
37972;BME280;23794;48.234;8.344;2023-04-21T01:34:48;93782.81;;;1.47;81.51
37972;BME280;23794;48.234;8.344;2023-04-21T01:37:18;93787.16;;;1.51;81.01
37972;BME280;23794;48.234;8.344;2023-04-21T01:39:48;93790.09;;;1.46;80.90
37972;BME280;23794;48.234;8.344;2023-04-21T01:42:18;93799.38;;;1.29;79.82
37972;BME280;23794;48.234;8.344;2023-04-21T01:44:46;93800.03;;;1.06;79.47
37972;BME280;23794;48.234;8.344;2023-04-21T01:47:16;93796.22;;;0.92;80.16
37972;BME280;23794;48.234;8.344;2023-04-21T01:49:44;93794.22;;;0.72;79.98
37972;BME280;23794;48.234;8.344;2023-04-21T01:52:11;93802.81;;;0.62;80.43
37972;BME280;23794;48.234;8.344;2023-04-21T01:54:38;93798.03;;;0.55;80.74
37972;BME280;23794;48.234;8.344;2023-04-21T01:57:05;93799.09;;;0.51;80.41
37972;BME280;23794;48.234;8.344;2023-04-21T01:59:32;93801.16;;;0.41;80.56
37972;BME280;23794;48.234;8.344;2023-04-21T02:02:01;93803.59;;;0.47;79.85
37972;BME280;23794;48.234;8.344;2023-04-21T02:04:27;93803.94;;;0.45;79.77
37972;BME280;23794;48.234;8.344;2023-04-21T02:06:54;93808.16;;;0.30;80.19
37972;BME280;23794;48.234;8.344;2023-04-21T02:09:21;93813.91;;;0.29;80.08
37972;BME280;23794;48.234;8.344;2023-04-21T02:11:51;93805.91;;;0.32;80.08
37972;BME280;23794;48.234;8.344;2023-04-21T02:14:18;93811.31;;;0.32;80.37
37972;BME280;23794;48.234;8.344;2023-04-21T02:16:44;93804.06;;;0.20;80.94
37972;BME280;23794;48.234;8.344;2023-04-21T02:19:11;93797.38;;;0.14;81.31
37972;BME280;23794;48.234;8.344;2023-04-21T02:21:38;93813.78;;;0.09;81.24
37972;BME280;23794;48.234;8.344;2023-04-21T02:24:05;93809.84;;;0.06;80.93
37972;BME280;23794;48.234;8.344;2023-04-21T02:26:31;93806.94;;;0.12;80.59
37972;BME280;23794;48.234;8.344;2023-04-21T02:28:59;93801.66;;;0.03;81.12
37972;BME280;23794;48.234;8.344;2023-04-21T02:31:25;93802.28;;;-0.04;81.00
37972;BME280;23794;48.234;8.344;2023-04-21T02:33:52;93808.22;;;0.02;80.77
37972;BME280;23794;48.234;8.344;2023-04-21T02:36:20;93807.41;;;0.01;80.82
37972;BME280;23794;48.234;8.344;2023-04-21T02:38:47;93807.56;;;-0.08;81.53
37972;BME280;23794;48.234;8.344;2023-04-21T02:41:14;93799.13;;;-0.06;81.10
37972;BME280;23794;48.234;8.344;2023-04-21T02:43:41;93800.16;;;-0.11;81.24
37972;BME280;23794;48.234;8.344;2023-04-21T02:46:08;93793.09;;;-0.15;82.16
37972;BME280;23794;48.234;8.344;2023-04-21T02:48:36;93799.13;;;-0.06;81.46
37972;BME280;23794;48.234;8.344;2023-04-21T02:51:02;93796.34;;;-0.10;80.90
37972;BME280;23794;48.234;8.344;2023-04-21T02:53:30;93803.22;;;-0.12;80.48
37972;BME280;23794;48.234;8.344;2023-04-21T02:55:57;93800.97;;;-0.10;80.04
37972;BME280;23794;48.234;8.344;2023-04-21T02:58:24;93805.19;;;-0.09;80.07
37972;BME280;23794;48.234;8.344;2023-04-21T03:00:51;93806.38;;;-0.23;80.84
37972;BME280;23794;48.234;8.344;2023-04-21T03:03:17;93814.69;;;-0.28;81.01
37972;BME280;23794;48.234;8.344;2023-04-21T03:05:44;93806.81;;;-0.21;80.25
37972;BME280;23794;48.234;8.344;2023-04-21T03:08:11;93805.34;;;-0.18;81.45
37972;BME280;23794;48.234;8.344;2023-04-21T03:10:38;93800.97;;;-0.23;82.11
37972;BME280;23794;48.234;8.344;2023-04-21T03:13:05;93801.34;;;-0.24;81.60
37972;BME280;23794;48.234;8.344;2023-04-21T03:15:31;93804.13;;;-0.21;81.89
37972;BME280;23794;48.234;8.344;2023-04-21T03:18:00;93811.75;;;-0.23;81.05
37972;BME280;23794;48.234;8.344;2023-04-21T03:20:27;93807.50;;;-0.24;80.71
37972;BME280;23794;48.234;8.344;2023-04-21T03:22:54;93802.09;;;-0.24;81.04
37972;BME280;23794;48.234;8.344;2023-04-21T03:25:21;93806.16;;;-0.30;80.88
37972;BME280;23794;48.234;8.344;2023-04-21T03:27:48;93801.03;;;-0.35;80.91
37972;BME280;23794;48.234;8.344;2023-04-21T03:30:14;93803.53;;;-0.42;81.59
37972;BME280;23794;48.234;8.344;2023-04-21T03:32:41;93811.00;;;-0.35;80.68
37972;BME280;23794;48.234;8.344;2023-04-21T03:35:08;93808.22;;;-0.39;80.67
37972;BME280;23794;48.234;8.344;2023-04-21T03:37:35;93809.47;;;-0.37;80.52
37972;BME280;23794;48.234;8.344;2023-04-21T03:40:02;93805.50;;;-0.39;81.39
37972;BME280;23794;48.234;8.344;2023-04-21T03:42:32;93800.03;;;-0.43;81.80
37972;BME280;23794;48.234;8.344;2023-04-21T03:45:03;93798.03;;;-0.46;82.31
37972;BME280;23794;48.234;8.344;2023-04-21T03:47:32;93800.47;;;-0.41;81.51
37972;BME280;23794;48.234;8.344;2023-04-21T03:50:00;93803.16;;;-0.41;80.94
37972;BME280;23794;48.234;8.344;2023-04-21T03:52:26;93804.28;;;-0.42;80.55
37972;BME280;23794;48.234;8.344;2023-04-21T03:54:53;93801.19;;;-0.44;81.14
37972;BME280;23794;48.234;8.344;2023-04-21T03:57:20;93806.00;;;-0.49;81.59
37972;BME280;23794;48.234;8.344;2023-04-21T03:59:46;93800.84;;;-0.42;81.07
37972;BME280;23794;48.234;8.344;2023-04-21T04:02:13;93800.38;;;-0.44;81.03
37972;BME280;23794;48.234;8.344;2023-04-21T04:04:40;93795.59;;;-0.51;81.37
37972;BME280;23794;48.234;8.344;2023-04-21T04:07:07;93794.34;;;-0.54;81.81
37972;BME280;23794;48.234;8.344;2023-04-21T04:09:35;93804.34;;;-0.54;81.94
37972;BME280;23794;48.234;8.344;2023-04-21T04:12:02;93796.59;;;-0.56;81.58
37972;BME280;23794;48.234;8.344;2023-04-21T04:14:29;93791.75;;;-0.50;81.32
37972;BME280;23794;48.234;8.344;2023-04-21T04:16:57;93802.63;;;-0.46;81.78
37972;BME280;23794;48.234;8.344;2023-04-21T04:19:29;93800.72;;;-0.46;81.81
37972;BME280;23794;48.234;8.344;2023-04-21T04:21:59;93800.84;;;-0.42;81.74
37972;BME280;23794;48.234;8.344;2023-04-21T04:24:27;93795.00;;;-0.44;81.24
37972;BME280;23794;48.234;8.344;2023-04-21T04:26:54;93797.59;;;-0.48;81.19
37972;BME280;23794;48.234;8.344;2023-04-21T04:29:21;93796.91;;;-0.45;81.12
37972;BME280;23794;48.234;8.344;2023-04-21T04:31:49;93795.69;;;-0.47;81.33
37972;BME280;23794;48.234;8.344;2023-04-21T04:34:16;93797.34;;;-0.43;81.66
37972;BME280;23794;48.234;8.344;2023-04-21T04:36:44;93791.53;;;-0.45;81.49
37972;BME280;23794;48.234;8.344;2023-04-21T04:39:10;93800.84;;;-0.42;81.09
37972;BME280;23794;48.234;8.344;2023-04-21T04:41:38;93793.31;;;-0.49;81.25
37972;BME280;23794;48.234;8.344;2023-04-21T04:44:05;93784.34;;;-0.41;80.98
37972;BME280;23794;48.234;8.344;2023-04-21T04:46:32;93796.47;;;-0.47;81.61
37972;BME280;23794;48.234;8.344;2023-04-21T04:48:59;93791.44;;;-0.48;81.89
37972;BME280;23794;48.234;8.344;2023-04-21T04:51:26;93790.63;;;-0.37;81.27
37972;BME280;23794;48.234;8.344;2023-04-21T04:53:53;93791.38;;;-0.36;81.14
37972;BME280;23794;48.234;8.344;2023-04-21T04:56:20;93795.66;;;-0.35;81.68
37972;BME280;23794;48.234;8.344;2023-04-21T04:58:47;93795.75;;;-0.31;81.41
37972;BME280;23794;48.234;8.344;2023-04-21T05:01:17;93792.72;;;-0.30;81.24
37972;BME280;23794;48.234;8.344;2023-04-21T05:03:45;93794.03;;;-0.24;80.98
37972;BME280;23794;48.234;8.344;2023-04-21T05:06:12;93796.31;;;-0.26;81.13
37972;BME280;23794;48.234;8.344;2023-04-21T05:08:39;93808.50;;;-0.28;81.35
37972;BME280;23794;48.234;8.344;2023-04-21T05:11:09;93796.97;;;-0.29;81.37
37972;BME280;23794;48.234;8.344;2023-04-21T05:13:36;93799.66;;;-0.29;81.72
37972;BME280;23794;48.234;8.344;2023-04-21T05:16:06;93799.66;;;-0.29;81.17
37972;BME280;23794;48.234;8.344;2023-04-21T05:18:33;93808.63;;;-0.25;80.80
37972;BME280;23794;48.234;8.344;2023-04-21T05:20:59;93807.38;;;-0.27;81.14
37972;BME280;23794;48.234;8.344;2023-04-21T05:23:26;93803.13;;;-0.28;81.92
37972;BME280;23794;48.234;8.344;2023-04-21T05:25:53;93810.28;;;-0.20;81.65
37972;BME280;23794;48.234;8.344;2023-04-21T05:28:20;93808.38;;;-0.19;81.40
37972;BME280;23794;48.234;8.344;2023-04-21T05:30:47;93799.59;;;-0.04;80.59
37972;BME280;23794;48.234;8.344;2023-04-21T05:33:17;93798.13;;;-0.01;81.03
37972;BME280;23794;48.234;8.344;2023-04-21T05:35:43;93802.38;;;-0.00;80.88
37972;BME280;23794;48.234;8.344;2023-04-21T05:38:11;93806.13;;;0.11;80.56
37972;BME280;23794;48.234;8.344;2023-04-21T05:40:38;93803.63;;;0.18;80.95
37972;BME280;23794;48.234;8.344;2023-04-21T05:43:05;93807.84;;;0.32;80.47
37972;BME280;23794;48.234;8.344;2023-04-21T05:45:33;93806.19;;;0.27;80.86
37972;BME280;23794;48.234;8.344;2023-04-21T05:48:04;93804.34;;;0.31;80.71
37972;BME280;23794;48.234;8.344;2023-04-21T05:50:31;93796.91;;;0.40;80.94
37972;BME280;23794;48.234;8.344;2023-04-21T05:53:01;93796.81;;;0.53;81.03
37972;BME280;23794;48.234;8.344;2023-04-21T05:55:28;93799.19;;;0.54;80.97
37972;BME280;23794;48.234;8.344;2023-04-21T05:57:55;93807.09;;;0.63;80.33
37972;BME280;23794;48.234;8.344;2023-04-21T06:00:21;93808.31;;;0.82;80.11
37972;BME280;23794;48.234;8.344;2023-04-21T06:02:48;93803.00;;;0.85;80.20
37972;BME280;23794;48.234;8.344;2023-04-21T06:05:15;93802.84;;;0.94;79.65
37972;BME280;23794;48.234;8.344;2023-04-21T06:07:42;93801.63;;;0.92;80.35
37972;BME280;23794;48.234;8.344;2023-04-21T06:10:09;93796.16;;;0.88;80.71
37972;BME280;23794;48.234;8.344;2023-04-21T06:12:36;93795.09;;;0.93;80.18
37972;BME280;23794;48.234;8.344;2023-04-21T06:15:03;93797.09;;;0.96;79.88
37972;BME280;23794;48.234;8.344;2023-04-21T06:17:30;93788.56;;;1.10;79.91
37972;BME280;23794;48.234;8.344;2023-04-21T06:19:57;93799.84;;;1.15;79.92
37972;BME280;23794;48.234;8.344;2023-04-21T06:22:24;93803.13;;;1.25;80.09
37972;BME280;23794;48.234;8.344;2023-04-21T06:24:51;93795.56;;;1.30;79.63
37972;BME280;23794;48.234;8.344;2023-04-21T06:27:18;93796.66;;;1.45;79.77
37972;BME280;23794;48.234;8.344;2023-04-21T06:29:44;93797.66;;;1.57;79.84
37972;BME280;23794;48.234;8.344;2023-04-21T06:32:11;93798.41;;;1.73;79.39
37972;BME280;23794;48.234;8.344;2023-04-21T06:34:38;93803.94;;;1.80;79.45
37972;BME280;23794;48.234;8.344;2023-04-21T06:37:04;93798.13;;;1.98;79.02
37972;BME280;23794;48.234;8.344;2023-04-21T06:39:31;93794.91;;;2.12;78.79
37972;BME280;23794;48.234;8.344;2023-04-21T06:41:58;93799.09;;;2.29;78.56
37972;BME280;23794;48.234;8.344;2023-04-21T06:44:25;93790.53;;;2.46;78.57
37972;BME280;23794;48.234;8.344;2023-04-21T06:46:52;93779.97;;;2.61;78.35
37972;BME280;23794;48.234;8.344;2023-04-21T06:49:19;93778.25;;;2.72;78.38
37972;BME280;23794;48.234;8.344;2023-04-21T06:51:46;93779.25;;;2.87;78.45
37972;BME280;23794;48.234;8.344;2023-04-21T06:54:12;93790.34;;;3.05;78.35
37972;BME280;23794;48.234;8.344;2023-04-21T06:56:39;93786.06;;;3.27;77.61
37972;BME280;23794;48.234;8.344;2023-04-21T06:59:08;93786.56;;;3.37;77.61
37972;BME280;23794;48.234;8.344;2023-04-21T07:01:35;93782.56;;;3.54;77.77
37972;BME280;23794;48.234;8.344;2023-04-21T07:04:02;93776.66;;;3.75;77.75
37972;BME280;23794;48.234;8.344;2023-04-21T07:06:31;93776.44;;;3.91;77.19
37972;BME280;23794;48.234;8.344;2023-04-21T07:08:58;93774.28;;;4.04;76.73
37972;BME280;23794;48.234;8.344;2023-04-21T07:11:25;93770.50;;;4.12;76.81
37972;BME280;23794;48.234;8.344;2023-04-21T07:13:54;93771.84;;;4.29;76.41
37972;BME280;23794;48.234;8.344;2023-04-21T07:16:21;93777.81;;;4.42;76.31
37972;BME280;23794;48.234;8.344;2023-04-21T07:18:47;93766.38;;;4.63;76.45
37972;BME280;23794;48.234;8.344;2023-04-21T07:21:14;93773.91;;;4.81;76.47
37972;BME280;23794;48.234;8.344;2023-04-21T07:23:41;93769.47;;;5.03;76.12
37972;BME280;23794;48.234;8.344;2023-04-21T07:26:08;93761.41;;;5.14;75.83
37972;BME280;23794;48.234;8.344;2023-04-21T07:28:36;93762.28;;;5.32;75.71
37972;BME280;23794;48.234;8.344;2023-04-21T07:31:03;93756.19;;;5.50;75.74
37972;BME280;23794;48.234;8.344;2023-04-21T07:33:30;93761.34;;;5.70;75.26
37972;BME280;23794;48.234;8.344;2023-04-21T07:35:57;93755.66;;;5.93;75.05
37972;BME280;23794;48.234;8.344;2023-04-21T07:38:24;93762.31;;;6.10;73.44
37972;BME280;23794;48.234;8.344;2023-04-21T07:40:50;93760.47;;;6.36;72.50
37972;BME280;23794;48.234;8.344;2023-04-21T07:43:17;93760.13;;;6.59;72.34
37972;BME280;23794;48.234;8.344;2023-04-21T07:45:45;93754.31;;;6.82;71.10
37972;BME280;23794;48.234;8.344;2023-04-21T07:48:12;93748.91;;;7.04;70.71
37972;BME280;23794;48.234;8.344;2023-04-21T07:50:39;93750.06;;;7.14;68.89
37972;BME280;23794;48.234;8.344;2023-04-21T07:53:06;93757.06;;;7.25;69.71
37972;BME280;23794;48.234;8.344;2023-04-21T07:55:33;93748.88;;;7.29;69.55
37972;BME280;23794;48.234;8.344;2023-04-21T07:58:06;93751.19;;;7.52;69.31
37972;BME280;23794;48.234;8.344;2023-04-21T08:00:33;93751.94;;;7.75;69.62
37972;BME280;23794;48.234;8.344;2023-04-21T08:02:59;93748.38;;;7.85;67.11
37972;BME280;23794;48.234;8.344;2023-04-21T08:05:27;93749.16;;;7.93;67.72
37972;BME280;23794;48.234;8.344;2023-04-21T08:08:00;93749.16;;;7.96;67.48
37972;BME280;23794;48.234;8.344;2023-04-21T08:10:27;93743.69;;;8.00;67.11
37972;BME280;23794;48.234;8.344;2023-04-21T08:12:54;93743.63;;;8.14;67.52
37972;BME280;23794;48.234;8.344;2023-04-21T08:15:21;93745.91;;;8.27;67.53
37972;BME280;23794;48.234;8.344;2023-04-21T08:17:50;93739.97;;;8.46;67.28
37972;BME280;23794;48.234;8.344;2023-04-21T08:20:17;93738.31;;;8.60;66.41
37972;BME280;23794;48.234;8.344;2023-04-21T08:22:44;93739.13;;;8.53;65.04
37972;BME280;23794;48.234;8.344;2023-04-21T08:25:13;93728.94;;;8.64;64.73
37972;BME280;23794;48.234;8.344;2023-04-21T08:27:40;93729.28;;;8.70;63.61
37972;BME280;23794;48.234;8.344;2023-04-21T08:30:07;93726.88;;;8.79;63.89
37972;BME280;23794;48.234;8.344;2023-04-21T08:32:34;93729.88;;;8.96;65.16
37972;BME280;23794;48.234;8.344;2023-04-21T08:35:01;93723.13;;;9.11;62.47
37972;BME280;23794;48.234;8.344;2023-04-21T08:37:28;93725.41;;;9.17;60.50
37972;BME280;23794;48.234;8.344;2023-04-21T08:39:55;93721.00;;;9.34;60.29
37972;BME280;23794;48.234;8.344;2023-04-21T08:42:21;93719.72;;;9.49;61.16
37972;BME280;23794;48.234;8.344;2023-04-21T08:44:48;93717.25;;;9.58;60.20
37972;BME280;23794;48.234;8.344;2023-04-21T08:47:15;93705.44;;;9.69;60.60
37972;BME280;23794;48.234;8.344;2023-04-21T08:49:42;93708.47;;;9.78;59.42
37972;BME280;23794;48.234;8.344;2023-04-21T08:52:11;93703.91;;;9.99;59.87
37972;BME280;23794;48.234;8.344;2023-04-21T08:54:39;93706.19;;;10.04;58.49
37972;BME280;23794;48.234;8.344;2023-04-21T08:57:06;93700.59;;;10.15;58.71
37972;BME280;23794;48.234;8.344;2023-04-21T08:59:41;93699.06;;;10.41;60.19
37972;BME280;23794;48.234;8.344;2023-04-21T09:02:16;93698.00;;;10.62;59.36
37972;BME280;23794;48.234;8.344;2023-04-21T09:04:46;93695.28;;;10.62;59.64
37972;BME280;23794;48.234;8.344;2023-04-21T09:07:32;93696.50;;;10.57;57.86
37972;BME280;23794;48.234;8.344;2023-04-21T09:09:59;93693.66;;;10.65;59.27
37972;BME280;23794;48.234;8.344;2023-04-21T09:12:28;93705.56;;;10.82;57.43
37972;BME280;23794;48.234;8.344;2023-04-21T09:14:55;93691.06;;;10.81;57.59
37972;BME280;23794;48.234;8.344;2023-04-21T09:17:28;93684.47;;;10.79;56.40
37972;BME280;23794;48.234;8.344;2023-04-21T09:20:20;93671.47;;;10.83;57.99
37972;BME280;23794;48.234;8.344;2023-04-21T09:22:48;93672.66;;;11.09;56.06
37972;BME280;23794;48.234;8.344;2023-04-21T09:25:19;93673.13;;;11.04;56.97
37972;BME280;23794;48.234;8.344;2023-04-21T09:27:46;93680.53;;;11.07;57.49
37972;BME280;23794;48.234;8.344;2023-04-21T09:30:17;93674.75;;;11.25;56.38
37972;BME280;23794;48.234;8.344;2023-04-21T09:32:44;93669.91;;;11.33;56.74
37972;BME280;23794;48.234;8.344;2023-04-21T09:35:11;93678.78;;;11.41;58.03
37972;BME280;23794;48.234;8.344;2023-04-21T09:37:38;93686.69;;;11.59;58.17
37972;BME280;23794;48.234;8.344;2023-04-21T09:40:05;93679.94;;;11.63;56.63
37972;BME280;23794;48.234;8.344;2023-04-21T09:42:32;93694.19;;;11.55;58.02
37972;BME280;23794;48.234;8.344;2023-04-21T09:45:04;93693.06;;;11.52;56.88
37972;BME280;23794;48.234;8.344;2023-04-21T09:47:40;93696.34;;;11.67;57.89
37972;BME280;23794;48.234;8.344;2023-04-21T09:50:10;93691.81;;;11.57;58.01
37972;BME280;23794;48.234;8.344;2023-04-21T09:52:38;93693.50;;;11.50;57.61
37972;BME280;23794;48.234;8.344;2023-04-21T09:55:10;93687.00;;;11.64;60.19
37972;BME280;23794;48.234;8.344;2023-04-21T09:57:40;93695.38;;;11.97;56.95
37972;BME280;23794;48.234;8.344;2023-04-21T10:00:08;93687.78;;;12.05;57.61
37972;BME280;23794;48.234;8.344;2023-04-21T10:02:42;93689.44;;;12.19;57.09
37972;BME280;23794;48.234;8.344;2023-04-21T10:05:10;93690.50;;;12.25;56.60
37972;BME280;23794;48.234;8.344;2023-04-21T10:07:38;93682.81;;;12.16;57.21
37972;BME280;23794;48.234;8.344;2023-04-21T10:10:22;93688.66;;;12.75;55.92
37972;BME280;23794;48.234;8.344;2023-04-21T10:12:50;93680.53;;;13.05;54.80
37972;BME280;23794;48.234;8.344;2023-04-21T10:18:18;93669.69;;;13.31;54.05
37972;BME280;23794;48.234;8.344;2023-04-21T10:21:02;93676.72;;;13.32;54.21
37972;BME280;23794;48.234;8.344;2023-04-21T10:23:41;93673.00;;;13.55;53.77
37972;BME280;23794;48.234;8.344;2023-04-21T10:26:24;93671.03;;;13.39;54.42
37972;BME280;23794;48.234;8.344;2023-04-21T10:28:56;93670.88;;;13.46;53.74
37972;BME280;23794;48.234;8.344;2023-04-21T10:31:50;93672.16;;;13.41;54.31
37972;BME280;23794;48.234;8.344;2023-04-21T10:34:28;93671.16;;;13.81;54.06
37972;BME280;23794;48.234;8.344;2023-04-21T10:39:27;93669.59;;;13.80;54.21
37972;BME280;23794;48.234;8.344;2023-04-21T10:41:55;93670.59;;;14.16;53.91
37972;BME280;23794;48.234;8.344;2023-04-21T10:44:27;93671.50;;;14.26;53.37
37972;BME280;23794;48.234;8.344;2023-04-21T10:46:54;93670.50;;;14.19;54.26
37972;BME280;23794;48.234;8.344;2023-04-21T10:49:29;93664.91;;;14.36;53.96
37972;BME280;23794;48.234;8.344;2023-04-21T10:54:35;93659.84;;;14.47;52.82
37972;BME280;23794;48.234;8.344;2023-04-21T10:57:10;93664.94;;;14.88;52.77
37972;BME280;23794;48.234;8.344;2023-04-21T10:59:38;93657.78;;;14.90;50.74
37972;BME280;23794;48.234;8.344;2023-04-21T11:02:06;93659.84;;;14.99;50.36
37972;BME280;23794;48.234;8.344;2023-04-21T11:04:33;93654.38;;;14.86;51.65
37972;BME280;23794;48.234;8.344;2023-04-21T11:07:19;93664.13;;;15.26;51.70
37972;BME280;23794;48.234;8.344;2023-04-21T11:10:00;93652.53;;;15.31;48.79
37972;BME280;23794;48.234;8.344;2023-04-21T11:12:38;93651.88;;;15.62;49.57
37972;BME280;23794;48.234;8.344;2023-04-21T11:15:08;93653.81;;;15.74;48.32
37972;BME280;23794;48.234;8.344;2023-04-21T11:17:37;93639.97;;;15.65;49.02
37972;BME280;23794;48.234;8.344;2023-04-21T11:20:06;93652.78;;;14.98;48.04
37972;BME280;23794;48.234;8.344;2023-04-21T11:22:36;93644.41;;;15.02;48.93
37972;BME280;23794;48.234;8.344;2023-04-21T11:25:05;93647.03;;;15.18;49.97
37972;BME280;23794;48.234;8.344;2023-04-21T11:27:32;93623.81;;;15.41;48.61
37972;BME280;23794;48.234;8.344;2023-04-21T11:30:02;93638.13;;;15.84;47.76
37972;BME280;23794;48.234;8.344;2023-04-21T11:32:29;93643.53;;;15.53;48.58
37972;BME280;23794;48.234;8.344;2023-04-21T11:34:56;93644.19;;;15.79;49.59
37972;BME280;23794;48.234;8.344;2023-04-21T11:37:25;93633.88;;;15.92;47.33
37972;BME280;23794;48.234;8.344;2023-04-21T11:40:01;93625.00;;;16.20;46.42
37972;BME280;23794;48.234;8.344;2023-04-21T11:42:32;93626.09;;;16.22;47.24
37972;BME280;23794;48.234;8.344;2023-04-21T11:44:58;93626.69;;;16.80;47.84
37972;BME280;23794;48.234;8.344;2023-04-21T11:47:27;93622.19;;;17.24;45.39
37972;BME280;23794;48.234;8.344;2023-04-21T11:49:56;93621.53;;;17.01;44.64
37972;BME280;23794;48.234;8.344;2023-04-21T11:52:31;93624.94;;;16.73;45.16
37972;BME280;23794;48.234;8.344;2023-04-21T11:54:59;93626.19;;;16.72;46.43
37972;BME280;23794;48.234;8.344;2023-04-21T11:57:29;93614.97;;;16.76;45.69
37972;BME280;23794;48.234;8.344;2023-04-21T12:00:01;93619.50;;;16.92;44.14
37972;BME280;23794;48.234;8.344;2023-04-21T12:02:37;93613.28;;;17.19;43.48
37972;BME280;23794;48.234;8.344;2023-04-21T12:05:10;93617.13;;;17.22;42.31
37972;BME280;23794;48.234;8.344;2023-04-21T12:07:54;93621.88;;;17.12;41.98
37972;BME280;23794;48.234;8.344;2023-04-21T12:10:36;93625.00;;;17.33;40.90
37972;BME280;23794;48.234;8.344;2023-04-21T12:13:27;93620.84;;;17.56;41.20
37972;BME280;23794;48.234;8.344;2023-04-21T12:16:08;93615.94;;;17.79;41.74
37972;BME280;23794;48.234;8.344;2023-04-21T12:19:40;93617.44;;;18.36;40.50
37972;BME280;23794;48.234;8.344;2023-04-21T12:22:16;93611.47;;;18.09;39.08
37972;BME280;23794;48.234;8.344;2023-04-21T12:24:51;93610.09;;;18.14;40.07
37972;BME280;23794;48.234;8.344;2023-04-21T12:27:20;93621.34;;;18.62;37.50
37972;BME280;23794;48.234;8.344;2023-04-21T12:29:51;93611.19;;;18.59;37.33
37972;BME280;23794;48.234;8.344;2023-04-21T12:32:20;93608.25;;;18.63;37.25
37972;BME280;23794;48.234;8.344;2023-04-21T12:34:49;93610.72;;;18.61;37.45
37972;BME280;23794;48.234;8.344;2023-04-21T12:37:21;93611.63;;;17.68;38.34
37972;BME280;23794;48.234;8.344;2023-04-21T12:39:58;93644.03;;;17.31;38.03
37972;BME280;23794;48.234;8.344;2023-04-21T12:42:46;93628.75;;;16.98;36.89
37972;BME280;23794;48.234;8.344;2023-04-21T12:45:31;93610.84;;;18.14;36.53
37972;BME280;23794;48.234;8.344;2023-04-21T12:48:23;93605.03;;;19.22;35.09
37972;BME280;23794;48.234;8.344;2023-04-21T12:50:50;93602.38;;;18.18;34.48
37972;BME280;23794;48.234;8.344;2023-04-21T12:53:17;93605.63;;;17.42;36.94
37972;BME280;23794;48.234;8.344;2023-04-21T12:55:49;93617.28;;;17.18;37.74
37972;BME280;23794;48.234;8.344;2023-04-21T12:58:47;93608.81;;;17.13;37.32
37972;BME280;23794;48.234;8.344;2023-04-21T13:01:33;93627.28;;;17.25;37.49
37972;BME280;23794;48.234;8.344;2023-04-21T13:04:14;93625.59;;;17.28;36.44
37972;BME280;23794;48.234;8.344;2023-04-21T13:06:45;93623.44;;;17.32;35.97
37972;BME280;23794;48.234;8.344;2023-04-21T13:09:12;93630.72;;;17.66;36.54
37972;BME280;23794;48.234;8.344;2023-04-21T13:11:40;93626.53;;;17.90;35.32
37972;BME280;23794;48.234;8.344;2023-04-21T13:14:08;93622.69;;;17.87;35.45
37972;BME280;23794;48.234;8.344;2023-04-21T13:16:39;93619.47;;;17.70;36.28
37972;BME280;23794;48.234;8.344;2023-04-21T13:19:08;93624.38;;;17.66;37.04
37972;BME280;23794;48.234;8.344;2023-04-21T13:21:44;93624.88;;;17.83;36.16
37972;BME280;23794;48.234;8.344;2023-04-21T13:24:17;93619.16;;;18.14;35.25